Dividing Creek, New Jersey
Current Conditions -  °F | °C
As of 4:54 PM on Friday 24 Oct 2014 (Local Time) from KMIV Reporting Station
Clear Clear  
Wind Chill: 66°   Ceiling: Unl
Heat Index: 66°   Visibility: 10mi
Dew Point: 45°   Wind: 15mph
Humidity: 47%   Direction: 290°WNW
Pressure: 29.82"   Gusts: 21mph
Location:  39.27°N, 75.1°W
Report Text: KMIV 242054Z AUTO 29013G18KT 10SM CLR 19/07 A2982 RMK AO2 SLP095 T01890072 55003
Loading
Personal Weather Stations






























Interactive Weather Map
Tropical Storm Tracking
New forecast layout! Learn more

10-Day Weather Forecast

Advertisements
Track Severe Weather on mobile